Virtual Norwegian is not affiliated with Norwegian Air Shuttle in any way.
If you are looking for the real "Norwegian", or you wish to book Norwegian flights, please visit Norwegian.com


We use cookies to ensure you get the best experience on our website.   ACCEPT

EDDH - HAM - Hamburg (Hamburg)

General Info Alternate Airport
ICAO: EDDH Elevation: 53 ft ICAO: EDDW
IATA: HAM Country: Germany IATA: BRE
City: Hamburg Charts: Log in to view charts City: Bremen
Name: Hamburg Hub: No Name Neuenland
General Info
ICAO: EDDH
IATA: HAM
City: Hamburg
Name: Hamburg
Elevation: 53 ft
Country: Germany
Charts: Log in to view charts
Hub: No
 
Alternate Airport
ICAO: EDDW
IATA: BRE
City: Bremen
Name: Neuenland

Weather
261650Z 29013KT 260V330 9999 FEW040 17/08 Q1013 BECMG 29008KT
Weather
261650Z 29013KT 260V330 9999 FEW040 17/08 Q1013 BECMG 29008KT

Runway Info
05
Length ILS/LOC Course
3250 m 110.50 049
15
Length ILS/LOC Course
3666 m 111.35 151
23
Length ILS/LOC Course
3250 m 111.50 229
33
Length ILS/LOC Course
3666 m 109.90 331

NOTAMs
NOTAMs currently unavailable.
NOTAMs
NOTAMs currently unavailable

Route map
Airport
Airport (hub)